Spokane, WA (99211)

1:55 AM PST on November 27, 2014 (GMT -0800)
I-90 & Sprague Ave | Change Station
CLOSE
Current Station
Personal Weather Station
Location: Spokane Valley, WA
Elevation: 1991 ft
Nearby Weather Stations

Elev 1991 ft 47.65 °N, 117.31 °W | Updated 5 seconds ago

Overcast
Overcast
54.1 °F
Feels Like 54.1 °F
N
5.4
Wind Variable Wind from SW
Gusts 5.4 mph

Today
High -- | Low -- °F
--% Chance of Precip.
Yesterday
High -- | Low -- °F
Precip. -- in
7:11 AM 4:01 PM
Waxing Crescent, 28% visible
Pressure 29.95 in
Visibility 10.0 miles
Clouds Overcast 11000 ft
Dew Point 35 °F
Humidity 48%
Rainfall 0.00 in
Snow Depth Not available.
UV 0.0 out of 12
Pollen .10 out of 12
Air Quality Not available.
Flu Activity Not available.
METAR KSFF 270853Z AUTO 00000KT 10SM OVC110 07/05 A2993 RMK AO2 SLP142 T00720050 58018

More Conditions Fewer Conditions

Pressure 29.95 in
Visibility 10.0 miles
Clouds Overcast 11000 ft
Dew Point 35 °F
Humidity 48%
Rainfall 0.00 in
Snow Depth Not available.
UV 0.0 out of 12
Pollen .10 out of 12
Air Quality Not available.
Flu Activity Not available.
METAR KSFF 270853Z AUTO 00000KT 10SM OVC110 07/05 A2993 RMK AO2 SLP142 T00720050 58018

More Conditions Fewer Conditions

10-Day Weather Forecast

Almanac

Astronomy

Nov. 27, 2014 Rise Set
Actual Time
Civil Twilight
Nautical Twilight
Astronomical Twilight
Moon
Length of Visible Light
Length of Day
Tomorrow will be .
, % of the Moon is Illuminated

Today's Extremes

State Highs State Lows

Community

WunderPhotos

Upload Photos

1,773,965 photos uploaded!

WunderBlogs® & News

Nearby

Air Quality

  Air Quality AQ Index Pollutant
Not available.

Snow Depth

Station Depth Elevation

Earthquake Activity

City Distance Mag. Time & Date
Minimum magnitude displayed is 2.5.

Coastal Water Temperatures

Place Temperature

Nearby Weather Stations